Time;durP1;ratioP1;P1;durP2;ratioP2;P2;SDS_P1;SDS_P2;PMS_P1;PMS_P2;Temp;Humidity;BMP_temperature;BMP_pressure;BME280_temperature;BME280_humidity;BME280_pressure;Samples;Min_cycle;Max_cycle;Signal;HPM_P1;HPM_P2
2023/12/08 00:02:04;;;;;;;30.73;19.95;;;2.40;99.90;;;;;;5092823;28;20256;-70
2023/12/08 00:04:31;;;;;;;23.98;16.92;;;2.30;99.90;;;;;;5091943;28;20219;-68
2023/12/08 00:06:58;;;;;;;30.02;19.13;;;2.40;99.90;;;;;;5088092;28;20290;-70
2023/12/08 00:09:25;;;;;;;27.70;18.58;;;2.30;99.90;;;;;;5086960;28;20701;-69
2023/12/08 00:11:52;;;;;;;26.83;16.58;;;2.40;99.90;;;;;;5088506;28;20575;-71
2023/12/08 00:14:21;;;;;;;21.20;15.35;;;2.50;99.90;;;;;;5089597;28;20215;-68
2023/12/08 00:16:47;;;;;;;27.77;18.60;;;2.60;99.90;;;;;;5090215;28;20244;-69
2023/12/08 00:19:14;;;;;;;24.10;16.98;;;2.50;99.90;;;;;;5089599;28;20714;-70
2023/12/08 00:21:41;;;;;;;27.05;16.45;;;2.50;99.90;;;;;;5089466;28;20242;-70
2023/12/08 00:24:09;;;;;;;30.92;16.48;;;2.50;99.90;;;;;;5092741;28;20296;-71
2023/12/08 00:26:36;;;;;;;24.48;15.60;;;2.60;99.90;;;;;;5092697;28;20219;-68
2023/12/08 00:29:04;;;;;;;20.63;15.45;;;2.70;99.90;;;;;;5092976;28;20198;-68
2023/12/08 00:31:32;;;;;;;20.23;14.43;;;2.60;99.90;;;;;;5091015;28;20198;-68
2023/12/08 00:33:59;;;;;;;24.70;15.85;;;2.70;99.90;;;;;;5091815;28;20630;-69
2023/12/08 00:36:26;;;;;;;26.10;15.07;;;2.60;99.90;;;;;;5091863;28;20194;-71
2023/12/08 00:38:54;;;;;;;20.90;15.50;;;2.60;99.90;;;;;;5091574;28;20218;-70
2023/12/08 00:41:22;;;;;;;19.15;13.43;;;2.70;99.90;;;;;;5091551;28;20445;-68
2023/12/08 00:43:49;;;;;;;20.30;13.30;;;2.70;99.90;;;;;;5090924;28;20194;-69
2023/12/08 00:46:17;;;;;;;20.02;14.05;;;2.60;99.90;;;;;;5089569;28;20206;-67
2023/12/08 00:48:45;;;;;;;24.60;13.45;;;2.70;99.90;;;;;;5085093;28;20233;-70
2023/12/08 00:51:13;;;;;;;24.48;14.02;;;2.70;99.90;;;;;;5090083;28;20241;-70
2023/12/08 00:53:40;;;;;;;18.38;12.50;;;2.80;99.90;;;;;;5091755;28;20239;-68
2023/12/08 00:56:08;;;;;;;18.50;13.10;;;2.70;99.90;;;;;;5091508;28;20322;-71
2023/12/08 00:58:35;;;;;;;23.20;14.48;;;2.70;99.90;;;;;;5091758;28;20202;-70
2023/12/08 01:01:03;;;;;;;20.75;12.75;;;2.60;99.90;;;;;;5082424;28;20208;-69
2023/12/08 01:03:30;;;;;;;22.02;14.45;;;2.60;99.90;;;;;;5089536;28;20259;-66
2023/12/08 01:05:59;;;;;;;23.27;15.38;;;2.60;99.90;;;;;;5091866;28;20280;-71
2023/12/08 01:08:26;;;;;;;18.90;12.63;;;2.70;99.90;;;;;;5088755;28;20220;-71
2023/12/08 01:10:53;;;;;;;17.90;12.35;;;2.70;99.90;;;;;;5091646;28;20237;-67
2023/12/08 01:13:20;;;;;;;17.67;12.10;;;2.70;99.90;;;;;;5091291;28;20230;-67
2023/12/08 01:15:47;;;;;;;19.45;12.02;;;2.70;99.90;;;;;;5092150;28;20305;-72
2023/12/08 01:18:14;;;;;;;15.88;11.77;;;2.70;99.90;;;;;;5088232;28;20235;-68
2023/12/08 01:20:41;;;;;;;16.85;13.80;;;2.70;99.90;;;;;;5090869;28;20206;-69
2023/12/08 01:23:10;;;;;;;15.50;11.38;;;2.70;99.90;;;;;;5084331;28;20676;-70
2023/12/08 01:25:37;;;;;;;16.13;11.23;;;2.80;99.90;;;;;;5083091;28;20247;-68
2023/12/08 01:28:04;;;;;;;16.80;10.80;;;2.80;99.90;;;;;;5089983;28;20685;-70
2023/12/08 01:30:31;;;;;;;13.90;11.18;;;2.80;99.90;;;;;;5082756;28;20207;-69
2023/12/08 01:32:58;;;;;;;13.13;11.73;;;2.70;99.90;;;;;;5093713;28;20668;-68
2023/12/08 01:35:24;;;;;;;17.27;11.57;;;2.70;99.90;;;;;;5087274;28;20255;-69
2023/12/08 01:37:52;;;;;;;17.30;11.25;;;2.70;99.90;;;;;;5088035;28;20230;-70
2023/12/08 01:40:21;;;;;;;19.65;12.02;;;2.60;99.90;;;;;;5093113;28;20628;-69
2023/12/08 01:42:48;;;;;;;20.10;10.45;;;2.70;99.90;;;;;;5095088;28;20615;-68
2023/12/08 01:45:15;;;;;;;16.63;11.13;;;2.60;99.90;;;;;;5094802;28;20612;-69
2023/12/08 01:47:44;;;;;;;19.25;11.75;;;2.60;99.90;;;;;;5095051;28;20214;-69
2023/12/08 01:50:12;;;;;;;15.10;10.05;;;2.60;99.90;;;;;;5097800;28;20224;-68
2023/12/08 01:52:39;;;;;;;17.70;11.88;;;2.70;99.90;;;;;;5092708;28;20212;-69
2023/12/08 01:55:07;;;;;;;14.30;11.93;;;2.70;99.90;;;;;;5095272;28;20261;-68
2023/12/08 01:57:36;;;;;;;20.27;12.15;;;2.60;99.90;;;;;;5094235;28;20242;-69
2023/12/08 02:00:03;;;;;;;16.52;11.73;;;2.60;99.90;;;;;;5092541;28;20245;-69
2023/12/08 02:02:30;;;;;;;19.52;12.20;;;2.60;99.90;;;;;;5093164;28;20226;-69
2023/12/08 02:04:58;;;;;;;19.05;11.48;;;2.50;99.90;;;;;;5086603;28;20221;-68
2023/12/08 02:07:26;;;;;;;17.63;12.38;;;2.60;99.90;;;;;;5090794;28;20237;-69
2023/12/08 02:09:53;;;;;;;13.90;11.60;;;2.60;99.90;;;;;;5087847;28;20230;-69
2023/12/08 02:12:20;;;;;;;15.90;11.38;;;2.50;99.90;;;;;;5091625;28;20291;-67
2023/12/08 02:14:52;;;;;;;14.98;10.98;;;2.50;99.90;;;;;;5086614;28;20253;-69
2023/12/08 02:17:22;;;;;;;16.10;10.57;;;2.50;99.90;;;;;;5089197;28;20199;-70
2023/12/08 02:19:50;;;;;;;15.30;10.75;;;2.50;99.90;;;;;;5090283;28;20250;-71
2023/12/08 02:22:18;;;;;;;13.63;9.85;;;2.50;99.90;;;;;;5090895;28;20640;-69
2023/12/08 02:24:46;;;;;;;20.10;11.88;;;2.50;99.90;;;;;;5088486;28;20268;-65
2023/12/08 02:27:13;;;;;;;15.60;10.57;;;2.50;99.90;;;;;;5093531;28;20219;-68
2023/12/08 02:29:41;;;;;;;14.38;11.30;;;2.50;99.90;;;;;;5090993;28;20234;-70
2023/12/08 02:32:14;;;;;;;15.00;11.43;;;2.50;99.90;;;;;;5085314;28;20238;-66
2023/12/08 02:34:45;;;;;;;13.40;10.30;;;2.40;99.90;;;;;;5091330;28;20229;-71
2023/12/08 02:37:15;;;;;;;14.55;11.15;;;2.50;99.90;;;;;;5090117;28;20226;-70
2023/12/08 02:39:44;;;;;;;14.18;10.00;;;2.50;99.90;;;;;;5093871;28;20293;-67
2023/12/08 02:42:13;;;;;;;14.85;9.77;;;2.50;99.90;;;;;;5086520;28;20232;-70
2023/12/08 02:44:40;;;;;;;15.50;10.98;;;2.50;99.90;;;;;;5091471;28;20268;-68
2023/12/08 02:47:07;;;;;;;12.85;9.68;;;2.60;99.90;;;;;;5092038;28;20268;-69
2023/12/08 02:49:35;;;;;;;12.45;9.77;;;2.60;99.90;;;;;;5092438;28;20243;-69
2023/12/08 02:52:01;;;;;;;16.20;10.15;;;2.50;99.90;;;;;;5086212;28;20271;-67
2023/12/08 02:54:28;;;;;;;14.90;9.25;;;2.50;99.90;;;;;;5089314;28;20583;-71
2023/12/08 02:56:55;;;;;;;12.48;9.65;;;2.50;99.90;;;;;;5087820;28;20248;-71
2023/12/08 02:59:24;;;;;;;11.95;10.40;;;2.50;99.90;;;;;;5092167;28;20199;-69
2023/12/08 03:01:50;;;;;;;14.05;8.15;;;2.50;99.90;;;;;;5088263;28;20194;-70
2023/12/08 03:04:17;;;;;;;14.52;11.13;;;2.50;99.90;;;;;;5090826;28;20730;-69
2023/12/08 03:06:44;;;;;;;14.07;9.85;;;2.60;99.90;;;;;;5093788;28;21580;-69
2023/12/08 03:09:11;;;;;;;20.25;11.32;;;2.60;99.90;;;;;;5087921;28;20223;-69
2023/12/08 03:11:38;;;;;;;21.05;11.65;;;2.50;99.90;;;;;;5089885;28;20663;-70
2023/12/08 03:14:05;;;;;;;17.70;11.13;;;2.60;99.90;;;;;;5086826;28;20254;-67
2023/12/08 03:16:33;;;;;;;20.65;12.73;;;2.60;99.90;;;;;;5088534;28;20646;-69
2023/12/08 03:19:00;;;;;;;14.90;11.25;;;2.60;99.90;;;;;;5087758;28;20231;-70
2023/12/08 03:21:28;;;;;;;14.32;9.68;;;2.60;99.90;;;;;;5090189;28;20235;-68
2023/12/08 03:23:55;;;;;;;18.02;11.63;;;2.70;99.90;;;;;;5089573;28;20283;-69
2023/12/08 03:26:22;;;;;;;14.40;9.57;;;2.80;99.90;;;;;;5086423;28;20498;-67
2023/12/08 03:28:49;;;;;;;12.25;8.63;;;2.70;99.90;;;;;;5082536;28;20672;-70
2023/12/08 03:31:27;;;;;;;13.45;8.90;;;2.60;99.90;;;;;;5087368;28;20224;-69
2023/12/08 03:33:56;;;;;;;12.73;9.10;;;2.60;99.90;;;;;;5085798;28;20198;-70
2023/12/08 03:36:24;;;;;;;11.88;9.50;;;2.50;99.90;;;;;;5089723;28;20202;-68
2023/12/08 03:38:51;;;;;;;13.50;10.38;;;2.50;99.90;;;;;;5093016;28;20218;-70
2023/12/08 03:41:18;;;;;;;10.75;8.55;;;2.40;99.90;;;;;;5089986;28;20636;-67
2023/12/08 03:43:45;;;;;;;11.40;9.50;;;2.40;99.90;;;;;;5089112;28;20269;-67
2023/12/08 03:46:12;;;;;;;24.88;9.80;;;2.40;99.90;;;;;;5091101;28;20364;-69
2023/12/08 03:48:39;;;;;;;17.67;11.45;;;2.50;99.90;;;;;;5090500;28;20214;-67
2023/12/08 03:51:08;;;;;;;16.50;10.38;;;2.50;99.90;;;;;;5088761;28;20198;-70
2023/12/08 03:53:35;;;;;;;13.82;10.13;;;2.50;99.90;;;;;;5083419;28;20266;-67
2023/12/08 03:56:02;;;;;;;13.15;9.90;;;2.40;99.90;;;;;;5091158;28;20236;-69
2023/12/08 03:58:29;;;;;;;13.10;9.50;;;2.50;99.90;;;;;;5082350;28;20208;-71
2023/12/08 04:00:56;;;;;;;11.80;9.18;;;2.60;99.90;;;;;;5087298;28;20515;-69
2023/12/08 04:03:23;;;;;;;12.65;9.65;;;2.60;99.90;;;;;;5091821;28;20226;-68
2023/12/08 04:05:51;;;;;;;13.95;10.32;;;2.50;99.90;;;;;;5092486;28;20250;-69
2023/12/08 04:08:19;;;;;;;14.48;10.07;;;2.50;99.90;;;;;;5089135;28;20250;-68
2023/12/08 04:10:46;;;;;;;15.10;8.85;;;2.40;99.90;;;;;;5091523;28;20333;-69
2023/12/08 04:13:13;;;;;;;15.13;11.60;;;2.50;99.90;;;;;;5090363;28;20229;-67
2023/12/08 04:15:40;;;;;;;17.25;11.00;;;2.50;99.90;;;;;;5088894;28;20279;-69
2023/12/08 04:18:07;;;;;;;16.58;10.13;;;2.50;99.90;;;;;;5092368;28;20607;-70
2023/12/08 04:20:35;;;;;;;16.90;11.20;;;2.40;99.90;;;;;;5090268;28;20203;-69
2023/12/08 04:23:05;;;;;;;17.80;11.20;;;2.40;99.90;;;;;;5083339;28;20209;-68
2023/12/08 04:25:34;;;;;;;13.60;10.40;;;2.40;99.90;;;;;;5088958;28;20308;-69
2023/12/08 04:28:01;;;;;;;15.45;11.63;;;2.40;99.90;;;;;;5085800;28;20222;-68
2023/12/08 04:30:29;;;;;;;13.70;10.55;;;2.40;99.90;;;;;;5081338;28;20208;-68
2023/12/08 04:32:56;;;;;;;15.57;10.70;;;2.40;99.90;;;;;;5087819;28;20445;-67
2023/12/08 04:35:24;;;;;;;18.20;10.60;;;2.40;99.90;;;;;;5082213;28;20224;-69
2023/12/08 04:37:51;;;;;;;13.95;11.93;;;2.50;99.90;;;;;;5090805;28;20433;-70
2023/12/08 04:40:19;;;;;;;14.90;10.70;;;2.50;99.90;;;;;;5083743;28;20203;-71
2023/12/08 04:42:47;;;;;;;16.15;11.55;;;2.50;99.90;;;;;;5083150;28;20195;-69
2023/12/08 04:45:15;;;;;;;14.77;10.95;;;2.50;99.90;;;;;;5089083;28;20250;-67
2023/12/08 04:47:42;;;;;;;14.75;10.85;;;2.40;99.90;;;;;;5083764;28;20203;-68
2023/12/08 04:50:09;;;;;;;13.00;10.02;;;2.50;99.90;;;;;;5090377;28;20447;-67
2023/12/08 04:52:36;;;;;;;14.50;10.70;;;2.50;99.90;;;;;;5086517;28;20240;-67
2023/12/08 04:55:04;;;;;;;16.33;10.95;;;2.60;99.90;;;;;;5088133;28;20689;-71
2023/12/08 04:57:31;;;;;;;16.10;12.10;;;2.50;99.90;;;;;;5085548;28;20286;-70
2023/12/08 05:00:00;;;;;;;17.33;11.43;;;2.50;99.90;;;;;;5089138;28;20282;-69
2023/12/08 05:02:27;;;;;;;16.40;12.40;;;2.50;99.90;;;;;;5087198;28;20199;-66
2023/12/08 05:04:54;;;;;;;19.10;12.95;;;2.50;99.90;;;;;;5078968;28;20271;-68
2023/12/08 05:07:21;;;;;;;18.75;13.32;;;2.50;99.90;;;;;;5093656;28;20790;-69
2023/12/08 05:09:48;;;;;;;15.27;10.18;;;2.50;99.90;;;;;;5095609;28;20262;-71
2023/12/08 05:12:15;;;;;;;15.35;12.00;;;2.50;99.90;;;;;;5094684;28;20268;-70
2023/12/08 05:14:42;;;;;;;16.38;12.57;;;2.40;99.90;;;;;;5091062;28;20231;-70
2023/12/08 05:17:11;;;;;;;18.77;13.05;;;2.40;99.90;;;;;;5090054;28;20202;-68
2023/12/08 05:19:38;;;;;;;17.92;12.48;;;2.40;99.90;;;;;;5095323;28;20265;-68
2023/12/08 05:22:05;;;;;;;15.35;11.48;;;2.40;99.90;;;;;;5095370;28;20198;-67
2023/12/08 05:24:32;;;;;;;18.33;13.65;;;2.40;99.90;;;;;;5086670;28;20279;-68
2023/12/08 05:26:59;;;;;;;19.25;14.60;;;2.50;99.90;;;;;;5089410;28;20214;-70
2023/12/08 05:29:26;;;;;;;19.83;13.32;;;2.50;99.90;;;;;;5089388;28;20264;-70
2023/12/08 05:31:53;;;;;;;19.20;12.65;;;2.50;99.90;;;;;;5095334;28;20781;-69
2023/12/08 05:34:21;;;;;;;18.13;13.82;;;2.70;99.90;;;;;;5090403;28;20221;-69
2023/12/08 05:36:48;;;;;;;17.25;12.93;;;2.50;99.90;;;;;;5088142;28;20253;-69
2023/12/08 05:39:16;;;;;;;20.27;13.60;;;2.60;99.90;;;;;;5092597;28;20198;-67
2023/12/08 05:41:43;;;;;;;17.98;13.15;;;2.50;99.90;;;;;;5088636;28;20700;-69
2023/12/08 05:44:10;;;;;;;23.75;14.55;;;2.50;99.90;;;;;;5088255;28;20273;-68
2023/12/08 05:46:37;;;;;;;20.52;13.15;;;2.40;99.90;;;;;;5091645;28;20287;-69
2023/12/08 05:49:05;;;;;;;20.15;13.27;;;2.50;99.90;;;;;;5091079;28;20268;-67
2023/12/08 05:51:33;;;;;;;19.83;13.05;;;2.40;99.90;;;;;;5092334;28;20315;-69
2023/12/08 05:54:02;;;;;;;19.48;12.93;;;2.50;99.90;;;;;;5090347;28;20205;-67
2023/12/08 05:56:29;;;;;;;17.07;12.40;;;2.50;99.90;;;;;;5095474;28;20237;-72
2023/12/08 05:58:56;;;;;;;22.17;15.43;;;2.50;99.90;;;;;;5088932;28;21003;-70
2023/12/08 06:01:23;;;;;;;19.52;14.43;;;2.50;99.90;;;;;;5094424;28;20198;-67
2023/12/08 06:03:50;;;;;;;21.08;13.70;;;2.50;99.90;;;;;;5096571;28;20620;-69
2023/12/08 06:06:17;;;;;;;18.88;14.10;;;2.60;99.90;;;;;;5090751;28;20199;-71
2023/12/08 06:08:46;;;;;;;20.55;13.80;;;2.60;99.90;;;;;;5093852;28;20329;-67
2023/12/08 06:11:14;;;;;;;20.33;12.85;;;2.50;99.90;;;;;;5093600;28;20195;-71
2023/12/08 06:13:41;;;;;;;20.20;13.98;;;2.50;99.90;;;;;;5092528;28;20260;-70
2023/12/08 06:16:09;;;;;;;21.40;13.45;;;2.50;99.90;;;;;;5089289;28;20614;-68
2023/12/08 06:18:36;;;;;;;18.42;14.50;;;2.50;99.90;;;;;;5087117;28;20718;-69
2023/12/08 06:21:03;;;;;;;21.23;14.48;;;2.50;99.90;;;;;;5092510;28;20202;-70
2023/12/08 06:23:30;;;;;;;22.90;14.13;;;2.50;99.90;;;;;;5090899;28;20194;-69
2023/12/08 06:25:59;;;;;;;22.73;11.77;;;2.50;99.90;;;;;;5094966;28;20684;-66
2023/12/08 06:28:26;;;;;;;17.65;11.75;;;2.50;99.90;;;;;;5091893;28;20227;-72
2023/12/08 06:30:52;;;;;;;16.65;12.07;;;2.50;99.90;;;;;;5093029;28;20321;-66
2023/12/08 06:33:19;;;;;;;19.35;13.40;;;2.60;99.90;;;;;;5087992;28;20234;-68
2023/12/08 06:35:46;;;;;;;17.98;13.07;;;2.60;99.90;;;;;;5091903;28;20766;-71
2023/12/08 06:38:13;;;;;;;19.83;13.60;;;2.60;99.90;;;;;;5084389;28;20256;-70
2023/12/08 06:40:41;;;;;;;20.63;14.15;;;2.50;99.90;;;;;;5092227;28;20221;-71
2023/12/08 06:43:09;;;;;;;22.13;12.82;;;2.50;99.90;;;;;;5086620;28;20210;-69
2023/12/08 06:45:37;;;;;;;21.25;14.20;;;2.50;99.90;;;;;;5092329;28;20273;-68
2023/12/08 06:48:05;;;;;;;21.30;15.85;;;2.60;99.90;;;;;;5087276;28;20247;-66
2023/12/08 06:50:32;;;;;;;22.42;13.88;;;2.50;99.90;;;;;;5081473;28;20199;-68
2023/12/08 06:52:59;;;;;;;23.77;14.23;;;2.50;99.90;;;;;;5091928;28;20793;-71
2023/12/08 06:55:26;;;;;;;22.63;14.85;;;2.50;99.90;;;;;;5090231;28;20230;-69
2023/12/08 06:57:53;;;;;;;16.73;12.98;;;2.50;99.90;;;;;;5089213;28;20202;-70
2023/12/08 07:00:21;;;;;;;20.95;13.27;;;2.50;99.90;;;;;;5091241;28;20275;-70
2023/12/08 07:02:48;;;;;;;20.95;13.52;;;2.50;99.90;;;;;;5092086;28;20198;-71
2023/12/08 07:05:19;;;;;;;24.70;13.65;;;2.50;99.90;;;;;;5088476;28;20314;-69
2023/12/08 07:07:47;;;;;;;22.83;15.90;;;2.50;99.90;;;;;;5085576;28;20203;-70
2023/12/08 07:10:15;;;;;;;19.48;13.75;;;2.50;99.90;;;;;;5079214;28;20234;-69
2023/12/08 07:12:42;;;;;;;20.73;14.55;;;2.50;99.90;;;;;;5087746;28;20290;-68
2023/12/08 07:15:10;;;;;;;18.65;13.00;;;2.70;99.90;;;;;;5088174;28;20226;-73
2023/12/08 07:17:38;;;;;;;16.65;13.27;;;2.70;99.90;;;;;;5090293;28;20671;-69
2023/12/08 07:20:09;;;;;;;29.02;14.65;;;2.70;99.90;;;;;;5094835;28;20663;-69
2023/12/08 07:22:36;;;;;;;21.27;14.15;;;2.60;99.90;;;;;;5091654;28;20602;-66
2023/12/08 07:25:04;;;;;;;19.55;14.65;;;2.60;99.90;;;;;;5090428;28;20587;-68
2023/12/08 07:27:31;;;;;;;20.50;13.77;;;2.60;99.90;;;;;;5094414;28;20749;-68
2023/12/08 07:29:58;;;;;;;23.50;14.18;;;2.60;99.90;;;;;;5088476;28;20214;-68
2023/12/08 07:32:25;;;;;;;21.60;13.90;;;2.60;99.90;;;;;;5089003;28;20194;-68
2023/12/08 07:34:54;;;;;;;19.10;13.05;;;2.60;99.90;;;;;;5090311;28;20252;-68
2023/12/08 07:37:20;;;;;;;20.05;13.55;;;2.50;99.90;;;;;;5087473;28;20199;-68
2023/12/08 07:39:48;;;;;;;20.38;14.95;;;2.50;99.90;;;;;;5092062;28;20230;-69
2023/12/08 07:42:15;;;;;;;22.08;14.27;;;2.50;99.90;;;;;;5088341;28;20302;-70
2023/12/08 07:44:42;;;;;;;25.38;15.10;;;2.50;99.90;;;;;;5091634;28;20230;-66
2023/12/08 07:47:09;;;;;;;27.52;17.48;;;2.50;99.90;;;;;;5085082;28;20208;-69
2023/12/08 07:49:37;;;;;;;24.38;16.88;;;2.40;99.90;;;;;;5082947;28;20738;-71
2023/12/08 07:52:06;;;;;;;22.75;15.85;;;2.50;99.90;;;;;;5084811;28;20662;-69
2023/12/08 07:54:33;;;;;;;20.73;15.07;;;2.50;99.90;;;;;;5085351;28;20227;-69
2023/12/08 07:57:00;;;;;;;29.95;17.35;;;2.30;99.90;;;;;;5090842;28;20241;-71
2023/12/08 07:59:27;;;;;;;20.80;16.00;;;2.30;99.90;;;;;;5082547;28;20200;-69
2023/12/08 08:01:54;;;;;;;26.23;16.48;;;2.30;99.90;;;;;;5079565;28;20670;-72
2023/12/08 08:04:21;;;;;;;25.60;16.95;;;2.40;99.90;;;;;;5083619;28;20258;-72
2023/12/08 08:06:48;;;;;;;22.65;15.93;;;2.40;99.90;;;;;;5082794;28;20256;-67
2023/12/08 08:09:17;;;;;;;26.38;18.40;;;2.20;99.90;;;;;;5085348;28;20254;-69
2023/12/08 08:11:44;;;;;;;28.63;17.38;;;2.30;99.90;;;;;;5086981;27;20438;-68
2023/12/08 08:14:11;;;;;;;25.05;16.42;;;2.30;99.90;;;;;;5087151;28;20276;-71
2023/12/08 08:16:39;;;;;;;25.37;16.27;;;2.20;99.90;;;;;;5081205;28;20205;-70
2023/12/08 08:19:06;;;;;;;25.35;17.83;;;2.20;99.90;;;;;;5079027;28;20442;-68
2023/12/08 08:21:32;;;;;;;25.23;17.65;;;2.30;99.90;;;;;;5087306;28;20237;-70
2023/12/08 08:23:59;;;;;;;28.52;18.25;;;2.20;99.90;;;;;;5081998;28;20256;-69
2023/12/08 08:26:28;;;;;;;33.47;20.02;;;2.20;99.90;;;;;;5084967;28;20200;-69
2023/12/08 08:28:55;;;;;;;26.85;17.52;;;2.20;99.90;;;;;;5083902;28;20232;-66
2023/12/08 08:31:22;;;;;;;30.27;19.60;;;2.20;99.90;;;;;;5083615;28;20215;-68
2023/12/08 08:33:49;;;;;;;30.40;17.40;;;2.20;99.90;;;;;;5086058;28;20256;-69
2023/12/08 08:36:17;;;;;;;28.50;18.02;;;2.30;99.90;;;;;;5083024;28;20247;-73
2023/12/08 08:38:44;;;;;;;28.58;18.77;;;2.10;99.90;;;;;;5084972;28;20228;-67
2023/12/08 08:41:11;;;;;;;29.02;17.02;;;2.20;99.90;;;;;;5084434;28;20206;-69
2023/12/08 08:43:40;;;;;;;31.50;20.13;;;2.20;99.90;;;;;;5083672;28;20285;-69
2023/12/08 08:46:08;;;;;;;23.25;15.70;;;2.20;99.90;;;;;;5090447;28;20242;-68
2023/12/08 08:48:35;;;;;;;25.20;17.17;;;2.30;99.90;;;;;;5090187;28;20202;-71
2023/12/08 08:51:03;;;;;;;24.23;16.83;;;2.30;99.90;;;;;;5091147;28;20323;-70
2023/12/08 08:53:30;;;;;;;28.90;17.90;;;2.40;99.90;;;;;;5078287;28;20206;-70
2023/12/08 08:55:57;;;;;;;25.13;16.80;;;2.30;99.90;;;;;;5086380;28;20229;-69
2023/12/08 08:58:24;;;;;;;29.45;19.63;;;2.40;99.90;;;;;;5083119;28;20628;-73
2023/12/08 09:00:52;;;;;;;24.23;15.55;;;2.40;99.90;;;;;;5084477;28;20540;-71
2023/12/08 09:03:19;;;;;;;24.27;16.10;;;2.30;99.90;;;;;;5088746;28;20331;-72
2023/12/08 09:05:47;;;;;;;21.48;15.73;;;2.20;99.90;;;;;;5088081;28;20226;-68
2023/12/08 09:08:14;;;;;;;28.90;17.10;;;2.20;99.90;;;;;;5087928;28;20624;-71
2023/12/08 09:10:44;;;;;;;25.33;17.92;;;2.20;99.90;;;;;;5076778;28;20566;-72
2023/12/08 09:13:11;;;;;;;34.13;19.08;;;2.30;99.90;;;;;;5083595;28;20209;-72
2023/12/08 09:15:38;;;;;;;25.90;17.45;;;2.40;99.90;;;;;;5084772;28;20247;-71
2023/12/08 09:18:06;;;;;;;28.52;19.15;;;2.30;99.90;;;;;;5084694;28;20444;-69
2023/12/08 09:20:33;;;;;;;26.33;16.92;;;2.30;99.90;;;;;;5085982;28;20199;-74
2023/12/08 09:23:00;;;;;;;24.58;16.67;;;2.30;99.90;;;;;;5084084;28;20199;-68
2023/12/08 09:25:27;;;;;;;22.10;16.48;;;2.30;99.90;;;;;;5086869;28;20280;-70
2023/12/08 09:27:54;;;;;;;37.15;20.63;;;2.30;99.90;;;;;;5089866;28;20254;-71
2023/12/08 09:30:20;;;;;;;24.95;16.00;;;2.30;99.90;;;;;;5081526;28;20272;-71
2023/12/08 09:32:50;;;;;;;26.27;19.07;;;2.40;99.90;;;;;;5089077;28;20583;-72
2023/12/08 09:35:18;;;;;;;27.17;16.98;;;2.30;99.90;;;;;;5089882;28;20457;-74
2023/12/08 09:37:46;;;;;;;24.17;17.77;;;2.30;99.90;;;;;;5090952;28;20208;-71
2023/12/08 09:40:16;;;;;;;23.95;16.05;;;2.30;99.90;;;;;;5089306;28;20198;-74
2023/12/08 09:42:48;;;;;;;25.00;16.48;;;2.40;99.90;;;;;;5090403;28;20624;-71
2023/12/08 09:45:15;;;;;;;24.17;15.77;;;2.40;99.90;;;;;;5091467;28;20279;-72
2023/12/08 09:47:43;;;;;;;23.02;16.40;;;2.40;99.90;;;;;;5092904;28;20207;-70
2023/12/08 09:50:12;;;;;;;27.10;17.63;;;2.40;99.90;;;;;;5091479;28;20230;-73
2023/12/08 09:52:41;;;;;;;29.65;17.45;;;2.30;99.90;;;;;;5092684;28;20202;-69
2023/12/08 09:55:10;;;;;;;27.13;16.45;;;2.30;99.90;;;;;;5100375;28;20222;-70
2023/12/08 09:57:38;;;;;;;27.65;17.13;;;2.40;99.90;;;;;;5096360;28;20268;-71
2023/12/08 10:00:10;;;;;;;27.10;16.67;;;2.30;99.90;;;;;;5094979;28;20608;-75
2023/12/08 10:02:37;;;;;;;30.92;18.02;;;2.40;99.90;;;;;;5094286;28;20557;-72
2023/12/08 10:05:04;;;;;;;29.40;18.80;;;2.40;99.90;;;;;;5095369;28;20595;-72
2023/12/08 10:07:32;;;;;;;23.70;16.15;;;2.40;99.90;;;;;;5095504;28;20204;-70
2023/12/08 10:10:01;;;;;;;26.08;17.25;;;2.50;99.90;;;;;;5094793;28;20220;-74
2023/12/08 10:12:28;;;;;;;25.08;18.02;;;2.50;99.90;;;;;;5088469;28;20207;-72
2023/12/08 10:14:56;;;;;;;24.08;16.10;;;2.50;99.90;;;;;;5088795;28;20258;-72
2023/12/08 10:17:24;;;;;;;29.50;16.35;;;2.70;99.90;;;;;;5087798;28;20198;-70
2023/12/08 10:19:52;;;;;;;22.52;15.85;;;2.60;99.90;;;;;;5084767;28;20688;-72
2023/12/08 10:22:20;;;;;;;24.95;17.70;;;2.60;99.90;;;;;;5089111;28;20539;-73
2023/12/08 10:24:47;;;;;;;22.85;16.70;;;2.60;99.90;;;;;;5087364;28;20657;-71
2023/12/08 10:27:15;;;;;;;20.70;15.03;;;2.70;99.90;;;;;;5093798;28;20232;-71
2023/12/08 10:29:42;;;;;;;21.88;14.82;;;2.70;99.90;;;;;;5092159;28;20503;-72
2023/12/08 10:32:09;;;;;;;22.23;16.05;;;2.70;99.90;;;;;;5086439;28;20206;-72
2023/12/08 10:34:39;;;;;;;26.60;15.93;;;2.90;99.90;;;;;;5091590;28;20252;-70
2023/12/08 10:37:07;;;;;;;28.13;19.23;;;2.70;99.90;;;;;;5088673;28;20246;-69
2023/12/08 10:39:34;;;;;;;22.48;16.30;;;2.70;99.90;;;;;;5090393;28;20251;-72
2023/12/08 10:42:02;;;;;;;24.27;14.70;;;2.70;99.90;;;;;;5086449;28;20221;-73
2023/12/08 10:44:31;;;;;;;27.25;17.67;;;2.70;99.90;;;;;;5080402;28;20223;-75
2023/12/08 10:46:59;;;;;;;19.08;14.05;;;2.70;99.90;;;;;;5090709;28;20226;-69
2023/12/08 10:49:28;;;;;;;21.27;15.65;;;2.70;99.90;;;;;;5091589;28;20240;-73
2023/12/08 10:51:56;;;;;;;23.10;16.23;;;2.80;99.90;;;;;;5088001;28;20214;-76
2023/12/08 10:54:25;;;;;;;23.80;16.48;;;2.80;99.90;;;;;;5092925;28;20222;-72
2023/12/08 10:56:52;;;;;;;22.98;15.95;;;2.70;99.90;;;;;;5092375;28;20297;-72
2023/12/08 10:59:24;;;;;;;24.45;15.35;;;2.70;99.90;;;;;;5087652;28;20198;-73
2023/12/08 11:01:54;;;;;;;26.63;17.13;;;2.70;99.90;;;;;;5088879;28;20215;-73
2023/12/08 11:04:22;;;;;;;22.73;16.35;;;2.80;99.90;;;;;;5084978;28;20218;-69
2023/12/08 11:06:58;;;;;;;22.85;15.52;;;2.90;99.90;;;;;;5093148;28;20657;-72
2023/12/08 11:09:28;;;;;;;26.00;14.93;;;2.80;99.90;;;;;;5086580;28;20273;-71
2023/12/08 11:11:56;;;;;;;24.75;15.77;;;2.70;99.90;;;;;;5083656;28;20207;-72
2023/12/08 11:14:36;;;;;;;21.45;15.43;;;2.60;99.90;;;;;;5085743;28;20585;-73
2023/12/08 11:17:08;;;;;;;24.23;16.20;;;2.60;99.90;;;;;;5086430;28;20233;-74
2023/12/08 11:19:36;;;;;;;27.33;16.80;;;2.60;99.90;;;;;;5084914;28;20203;-72
2023/12/08 11:22:03;;;;;;;23.70;17.58;;;2.70;99.90;;;;;;5087701;28;20355;-75
2023/12/08 11:24:31;;;;;;;22.73;15.88;;;2.60;99.90;;;;;;5089167;28;20217;-71
2023/12/08 11:27:06;;;;;;;19.10;14.60;;;2.70;99.90;;;;;;5085426;28;20227;-73
2023/12/08 11:29:42;;;;;;;27.05;16.63;;;2.60;99.90;;;;;;5079507;28;20198;-69
2023/12/08 11:32:19;;;;;;;27.58;18.65;;;2.60;99.90;;;;;;5078522;28;20205;-74
2023/12/08 11:34:52;;;;;;;26.25;17.77;;;2.60;99.90;;;;;;5081821;28;20275;-73
2023/12/08 11:37:19;;;;;;;26.15;17.83;;;2.60;99.90;;;;;;5082200;28;20209;-74
2023/12/08 11:39:47;;;;;;;24.70;17.75;;;2.60;99.90;;;;;;5085758;28;20202;-72
2023/12/08 11:42:16;;;;;;;25.55;18.45;;;2.70;99.90;;;;;;5084986;28;20206;-68
2023/12/08 11:44:44;;;;;;;31.13;19.33;;;2.60;99.90;;;;;;5095278;28;20227;-73
2023/12/08 11:47:15;;;;;;;28.95;17.88;;;2.70;99.90;;;;;;5091896;28;20214;-72
2023/12/08 11:49:44;;;;;;;25.50;17.67;;;2.70;99.90;;;;;;5092522;28;20676;-73
2023/12/08 11:52:16;;;;;;;25.05;17.85;;;2.70;99.90;;;;;;5086576;28;20331;-70
2023/12/08 11:55:07;;;;;;;25.48;16.10;;;2.80;99.90;;;;;;5088809;28;20234;-70
2023/12/08 11:57:36;;;;;;;27.60;17.33;;;2.90;99.90;;;;;;5088864;28;20205;-73
2023/12/08 12:00:07;;;;;;;26.85;17.30;;;2.80;99.90;;;;;;5091405;28;20198;-72
2023/12/08 12:02:35;;;;;;;30.85;20.50;;;2.90;99.90;;;;;;5091402;28;20305;-73
2023/12/08 12:05:03;;;;;;;29.50;18.88;;;2.90;99.90;;;;;;5090431;28;20227;-71
2023/12/08 12:07:31;;;;;;;27.63;18.02;;;2.90;99.90;;;;;;5094584;28;20205;-73
2023/12/08 12:09:58;;;;;;;29.08;18.40;;;3.00;99.90;;;;;;5089039;28;20700;-72
2023/12/08 12:12:30;;;;;;;29.58;18.88;;;3.00;99.90;;;;;;5084101;28;20263;-70
2023/12/08 12:14:58;;;;;;;30.60;20.33;;;2.90;99.90;;;;;;5091445;28;20229;-72
2023/12/08 12:17:25;;;;;;;27.40;18.55;;;2.90;99.90;;;;;;5087846;28;20228;-71
2023/12/08 12:19:53;;;;;;;31.02;19.15;;;3.00;99.90;;;;;;5083479;28;20276;-70
2023/12/08 12:22:20;;;;;;;24.40;16.67;;;3.00;99.90;;;;;;5092009;28;20240;-70
2023/12/08 12:24:48;;;;;;;31.85;18.65;;;2.90;99.90;;;;;;5085409;28;20256;-69
2023/12/08 12:27:14;;;;;;;27.13;18.08;;;3.00;99.90;;;;;;5091907;28;20202;-67
2023/12/08 12:29:41;;;;;;;27.42;19.63;;;3.10;99.90;;;;;;5088456;28;20194;-69
2023/12/08 12:32:08;;;;;;;27.20;18.70;;;3.10;99.90;;;;;;5090431;28;20348;-69
2023/12/08 12:34:36;;;;;;;30.23;20.65;;;3.10;99.90;;;;;;5086977;28;20708;-69
2023/12/08 12:37:05;;;;;;;26.58;17.77;;;3.10;99.90;;;;;;5086163;28;20254;-71
2023/12/08 12:39:34;;;;;;;32.95;21.13;;;3.00;99.90;;;;;;5091314;28;20238;-70
2023/12/08 12:42:01;;;;;;;27.15;19.65;;;3.00;99.90;;;;;;5089874;28;20199;-70